Terminal Aerodrome Forecast
Issued by NWS

Home | Current Version | Previous Version | Text Only | Print | Product List | Glossary On
Versions: 1 2 3 4 5 6 7 8 9 10 11 12 13 14 15 16 17
000
FTAK31 PAJN 281500 AAB
TAFAKT
TAF AMD
PAKT 281536Z 2816/2912 VRB04KT P6SM SCT006 SCT010
      TEMPO 2816/2818 5SM BR OVC005
     FM281800 11007KT P6SM SCT010 BKN070
     FM282000 12008KT P6SM BKN070
     FM290000 14008KT P6SM VCSH BKN040 OVC080
     FM290800 14010KT P6SM -RA SCT020 BKN040 PROB30 2908/2912
      14010G20KT 3SM -TSRA SCT010 BKN030CB
      AMD LTD TO CLD VIS AND WIND 2814/2815=

USA.gov is the U.S. government's official web portal to all federal, state and local government web resources and services.